North Saint Paul, Minnesota
Current Conditions -  °F | °C
As of 7:53 PM on Saturday 25 Oct 2014 (Local Time) from KSTP Reporting Station
Clear Clear  
Wind Chill: 53°   Ceiling: Unl
Heat Index: 53°   Visibility: 10mi
Dew Point: 26°   Wind: 10mph
Humidity: 35%   Direction: 290°WNW
Pressure: 30.05"   Gusts: NA
Location:  45.0145°N, 93.0259°W
Report Text: KSTP 260053Z 29009KT 10SM CLR 12/M03 A3005 RMK AO2 SLP176 T01171033
Loading
Personal Weather Stations






























Interactive Weather Map New forecast layout! Learn more

10-Day Weather Forecast

Advertisements
Track Severe Weather on mobile